createdAt,value
2023-06-07T00:00:45.491Z,90.13
2023-06-07T00:02:49.110Z,89.89
2023-06-07T00:04:52.596Z,90.54
2023-06-07T00:06:58.000Z,90.54
2023-06-07T00:09:02.791Z,90.55
2023-06-07T00:11:08.295Z,90.67
2023-06-07T00:13:13.246Z,90.83
2023-06-07T00:15:16.629Z,90.37
2023-06-07T00:17:20.019Z,91.00
2023-06-07T00:19:26.463Z,91.10
2023-06-07T00:21:31.498Z,90.62
2023-06-07T00:23:36.676Z,90.34
2023-06-07T00:25:41.559Z,90.76
2023-06-07T00:27:44.878Z,90.49
2023-06-07T00:29:48.247Z,90.54
2023-06-07T00:31:51.987Z,90.20
2023-06-07T00:33:55.288Z,90.70
2023-06-07T00:35:58.762Z,90.72
2023-06-07T00:38:02.060Z,90.83
2023-06-07T00:40:06.438Z,90.59
2023-06-07T00:42:12.538Z,90.18
2023-06-07T00:44:17.714Z,90.67
2023-06-07T00:46:22.608Z,90.86
2023-06-07T00:48:26.159Z,91.47
2023-06-07T00:50:30.005Z,91.28
2023-06-07T00:52:35.096Z,90.82
2023-06-07T00:54:38.842Z,91.24
2023-06-07T00:56:42.536Z,91.68
2023-06-07T00:58:49.033Z,91.58
2023-06-07T01:00:52.544Z,91.13
2023-06-07T01:02:56.961Z,91.63
2023-06-07T01:05:03.873Z,91.88
2023-06-07T01:07:08.754Z,91.44
2023-06-07T01:09:14.939Z,92.52
2023-06-07T01:11:18.564Z,92.05
2023-06-07T01:13:22.282Z,92.27
2023-06-07T01:15:28.100Z,91.52
2023-06-07T01:17:33.200Z,91.51
2023-06-07T01:19:38.652Z,92.35
2023-06-07T01:21:45.320Z,92.80
2023-06-07T01:23:51.114Z,92.26
2023-06-07T01:25:54.758Z,92.35
2023-06-07T01:27:59.061Z,92.58
2023-06-07T01:30:03.282Z,93.40
2023-06-07T01:32:10.466Z,93.24
2023-06-07T01:34:15.577Z,93.07
2023-06-07T01:36:19.680Z,93.04
2023-06-07T01:38:24.974Z,93.98
2023-06-07T01:40:30.527Z,93.19
2023-06-07T01:42:36.635Z,92.92
2023-06-07T01:44:41.101Z,93.01
2023-06-07T01:46:45.043Z,92.29
2023-06-07T01:48:48.370Z,92.67
2023-06-07T01:50:51.692Z,92.57
2023-06-07T01:52:55.124Z,93.33
2023-06-07T01:54:59.379Z,93.53
2023-06-07T01:57:18.271Z,93.22
2023-06-07T01:59:31.042Z,93.97
2023-06-07T02:01:42.957Z,93.89
2023-06-07T02:03:52.841Z,93.36
2023-06-07T02:06:04.522Z,93.68
2023-06-07T02:08:14.971Z,94.26
2023-06-07T02:10:22.739Z,94.04
2023-06-07T02:12:28.225Z,93.96
2023-06-07T02:14:31.831Z,93.28
2023-06-07T02:16:37.214Z,93.44
2023-06-07T02:18:43.625Z,93.96
2023-06-07T02:20:46.900Z,94.02
2023-06-07T02:22:50.374Z,93.79
2023-06-07T02:24:54.464Z,94.15
2023-06-07T02:26:58.843Z,93.90
2023-06-07T02:29:04.646Z,94.20
2023-06-07T02:31:08.012Z,94.33
2023-06-07T02:33:15.143Z,93.79
2023-06-07T02:35:20.005Z,93.61
2023-06-07T02:37:23.284Z,94.02
2023-06-07T02:39:28.042Z,94.76
2023-06-07T02:41:31.798Z,93.96
2023-06-07T02:43:35.109Z,93.91
2023-06-07T02:45:39.821Z,93.09
2023-06-07T02:47:43.739Z,93.80
2023-06-07T02:49:47.198Z,93.80
2023-06-07T02:51:50.552Z,93.42
2023-06-07T02:53:54.721Z,93.80
2023-06-07T02:56:00.434Z,93.54
2023-06-07T02:58:03.749Z,94.08
2023-06-07T03:00:12.054Z,93.70
2023-06-07T03:02:32.199Z,93.58
2023-06-07T03:04:35.980Z,93.90
2023-06-07T03:06:42.589Z,93.51
2023-06-07T03:08:57.195Z,93.89
2023-06-07T03:11:02.675Z,93.59
2023-06-07T03:13:10.957Z,93.50
2023-06-07T03:15:15.898Z,93.19
2023-06-07T03:17:21.652Z,94.90
2023-06-07T03:19:30.432Z,94.41
2023-06-07T03:21:34.979Z,94.12
2023-06-07T03:23:41.645Z,94.19
2023-06-07T03:25:46.440Z,94.03
2023-06-07T03:27:51.446Z,94.04
2023-06-07T03:30:04.553Z,94.72
2023-06-07T03:32:13.772Z,93.52
2023-06-07T03:34:19.635Z,94.12
2023-06-07T03:36:27.216Z,95.13
2023-06-07T03:38:31.611Z,94.61
2023-06-07T03:40:35.798Z,94.62
2023-06-07T03:42:39.601Z,94.47
2023-06-07T03:44:44.640Z,94.19
2023-06-07T03:46:48.275Z,95.08
2023-06-07T03:48:53.130Z,94.58
2023-06-07T03:50:58.501Z,95.01
2023-06-07T03:53:03.226Z,95.34
2023-06-07T03:55:09.793Z,95.01
2023-06-07T03:57:14.369Z,94.46
2023-06-07T03:59:21.999Z,94.45
2023-06-07T04:01:27.158Z,94.39
2023-06-07T04:03:34.016Z,95.56
2023-06-07T04:05:40.958Z,95.58
2023-06-07T04:07:47.765Z,96.48
2023-06-07T04:09:53.602Z,97.28
2023-06-07T04:11:57.745Z,98.69
2023-06-07T04:14:01.090Z,99.03
2023-06-07T04:16:07.118Z,99.53
2023-06-07T04:18:10.616Z,99.59
2023-06-07T04:20:16.009Z,99.74
2023-06-07T04:22:20.782Z,100.00
2023-06-07T04:24:24.846Z,99.85
2023-06-07T04:26:32.475Z,99.64
2023-06-07T04:28:35.980Z,99.28
2023-06-07T04:30:43.668Z,99.46
2023-06-07T04:32:48.085Z,99.59
2023-06-07T04:34:52.939Z,100.00
2023-06-07T04:36:58.726Z,100.00
2023-06-07T04:39:02.408Z,100.00
2023-06-07T04:41:08.781Z,100.00
2023-06-07T04:43:19.863Z,100.00
2023-06-07T04:45:32.499Z,100.00
2023-06-07T04:47:36.470Z,100.00
2023-06-07T04:49:40.264Z,100.00
2023-06-07T04:51:43.905Z,100.00
2023-06-07T04:53:47.848Z,100.00
2023-06-07T04:55:59.401Z,100.00
2023-06-07T04:58:05.621Z,100.00
2023-06-07T05:00:14.776Z,100.00
2023-06-07T05:02:21.678Z,100.00
2023-06-07T05:04:26.966Z,100.00
2023-06-07T05:06:38.401Z,100.00
2023-06-07T05:08:44.512Z,100.00
2023-06-07T05:10:49.026Z,100.00
2023-06-07T05:12:52.371Z,100.00
2023-06-07T05:14:56.047Z,100.00
2023-06-07T05:17:02.420Z,100.00
2023-06-07T05:19:09.489Z,100.00
2023-06-07T05:21:16.316Z,97.20
2023-06-07T05:23:20.755Z,94.71
2023-06-07T05:25:27.973Z,91.88
2023-06-07T05:27:31.590Z,89.48
2023-06-07T05:29:35.047Z,88.04
2023-06-07T05:31:39.381Z,85.81
2023-06-07T05:33:44.249Z,85.30
2023-06-07T05:35:49.007Z,84.77
2023-06-07T05:37:54.719Z,82.50
2023-06-07T05:39:58.178Z,83.59
2023-06-07T05:42:04.755Z,84.25
2023-06-07T05:44:09.182Z,84.18
2023-06-07T05:46:14.267Z,84.98
2023-06-07T05:48:18.381Z,85.11
2023-06-07T05:50:25.174Z,81.92
2023-06-07T05:52:29.583Z,79.81
2023-06-07T05:54:33.036Z,79.16
2023-06-07T05:56:36.629Z,79.28
2023-06-07T05:58:40.117Z,80.01
2023-06-07T06:00:45.552Z,78.32
2023-06-07T06:02:49.383Z,75.93
2023-06-07T06:04:54.020Z,74.77
2023-06-07T06:06:58.903Z,73.39
2023-06-07T06:09:02.008Z,72.34
2023-06-07T06:11:05.284Z,73.32
2023-06-07T06:13:08.696Z,75.05
2023-06-07T06:15:12.697Z,75.91
2023-06-07T06:17:18.705Z,75.31
2023-06-07T06:19:22.092Z,76.38
2023-06-07T06:21:25.537Z,77.44
2023-06-07T06:23:30.300Z,78.40
2023-06-07T06:25:33.648Z,79.22
2023-06-07T06:27:36.944Z,79.89
2023-06-07T06:29:40.412Z,81.48
2023-06-07T06:31:44.466Z,81.67
2023-06-07T06:33:48.068Z,82.55
2023-06-07T06:35:51.452Z,82.86
2023-06-07T06:37:54.915Z,82.34
2023-06-07T06:39:59.600Z,82.66
2023-06-07T06:42:03.019Z,82.78
2023-06-07T06:44:26.702Z,82.84
2023-06-07T06:46:30.033Z,82.05
2023-06-07T06:48:33.374Z,81.22
2023-06-07T06:50:37.226Z,79.70
2023-06-07T06:52:41.577Z,79.56
2023-06-07T06:54:45.393Z,78.83
2023-06-07T06:56:50.728Z,78.28
2023-06-07T06:58:54.333Z,77.55
2023-06-07T07:00:57.936Z,76.38
2023-06-07T07:03:01.921Z,74.61
2023-06-07T07:05:06.826Z,71.64
2023-06-07T07:07:12.621Z,70.67
2023-06-07T07:09:16.800Z,68.37
2023-06-07T07:11:20.432Z,66.91
2023-06-07T07:13:25.503Z,65.91
2023-06-07T07:15:29.359Z,64.49
2023-06-07T07:17:33.484Z,64.96
2023-06-07T07:19:37.029Z,66.18
2023-06-07T07:21:40.908Z,67.68
2023-06-07T07:23:44.823Z,68.16
2023-06-07T07:25:48.740Z,68.80
2023-06-07T07:27:52.323Z,68.82
2023-06-07T07:29:57.580Z,67.51
2023-06-07T07:32:01.398Z,67.13
2023-06-07T07:34:05.905Z,68.50
2023-06-07T07:36:09.704Z,70.54
2023-06-07T07:38:17.234Z,71.14
2023-06-07T07:40:21.847Z,73.12
2023-06-07T07:42:25.782Z,75.09
2023-06-07T07:44:29.438Z,76.04
2023-06-07T07:46:34.664Z,76.98
2023-06-07T07:48:38.374Z,77.63
2023-06-07T07:50:42.190Z,78.24
2023-06-07T07:52:46.111Z,78.51
2023-06-07T07:54:49.988Z,78.78
2023-06-07T07:56:53.768Z,79.47
2023-06-07T07:58:57.328Z,79.71
2023-06-07T08:01:01.069Z,79.34
2023-06-07T08:03:06.642Z,80.38
2023-06-07T08:05:11.163Z,80.24
2023-06-07T08:07:17.156Z,80.48
2023-06-07T08:09:20.857Z,80.28
2023-06-07T08:11:25.980Z,79.93
2023-06-07T08:13:31.588Z,79.51
2023-06-07T08:15:37.201Z,79.49
2023-06-07T08:17:42.587Z,79.61
2023-06-07T08:19:49.441Z,79.75
2023-06-07T08:21:54.217Z,79.45
2023-06-07T08:23:59.216Z,79.18
2023-06-07T08:26:03.662Z,80.39
2023-06-07T08:28:09.246Z,80.57
2023-06-07T08:30:14.403Z,80.73
2023-06-07T08:32:19.411Z,80.51
2023-06-07T08:34:29.490Z,79.67
2023-06-07T08:36:38.795Z,80.14
2023-06-07T08:38:42.771Z,80.09
2023-06-07T08:40:46.894Z,80.03
2023-06-07T08:42:50.988Z,80.24
2023-06-07T08:44:54.570Z,80.29
2023-06-07T08:47:00.241Z,80.18
2023-06-07T08:49:06.668Z,79.02
2023-06-07T08:51:12.180Z,78.76
2023-06-07T08:53:21.564Z,78.58
2023-06-07T08:55:27.078Z,77.84
2023-06-07T08:57:32.583Z,77.71
2023-06-07T08:59:37.671Z,75.60
2023-06-07T09:01:41.646Z,75.64
2023-06-07T09:03:46.685Z,76.33
2023-06-07T09:05:50.457Z,76.57
2023-06-07T09:07:55.736Z,76.04
2023-06-07T09:10:02.726Z,75.95
2023-06-07T09:12:08.270Z,76.01
2023-06-07T09:14:14.189Z,76.13
2023-06-07T09:16:18.862Z,75.62
2023-06-07T09:18:22.938Z,75.80
2023-06-07T09:20:28.704Z,75.51
2023-06-07T09:22:34.125Z,75.00
2023-06-07T09:24:40.111Z,76.05
2023-06-07T09:26:45.662Z,75.91
2023-06-07T09:28:49.687Z,76.67
2023-06-07T09:30:58.224Z,75.18
2023-06-07T09:33:02.300Z,75.09
2023-06-07T09:35:16.070Z,75.46
2023-06-07T09:37:22.323Z,76.05
2023-06-07T09:39:28.290Z,75.25
2023-06-07T09:41:35.233Z,75.11
2023-06-07T09:43:49.272Z,74.54
2023-06-07T09:45:56.830Z,74.89
2023-06-07T09:48:05.282Z,75.43
2023-06-07T09:50:09.892Z,75.02
2023-06-07T09:52:16.581Z,75.02
2023-06-07T09:54:20.906Z,75.23
2023-06-07T09:56:26.238Z,74.40
2023-06-07T09:58:29.816Z,74.39
2023-06-07T10:00:44.550Z,74.52
2023-06-07T10:02:48.683Z,74.64
2023-06-07T10:04:58.670Z,74.69
2023-06-07T10:07:07.357Z,74.28
2023-06-07T10:09:12.345Z,74.11
2023-06-07T10:11:17.077Z,74.60
2023-06-07T10:13:22.935Z,74.28
2023-06-07T10:15:28.199Z,74.09
2023-06-07T10:17:42.000Z,74.69
2023-06-07T10:19:48.192Z,74.93
2023-06-07T10:21:55.294Z,75.49
2023-06-07T10:24:01.595Z,74.53
2023-06-07T10:26:10.208Z,74.44
2023-06-07T10:28:22.281Z,73.52
2023-06-07T10:30:29.263Z,73.79
2023-06-07T10:32:39.869Z,73.95
2023-06-07T10:34:46.632Z,74.22
2023-06-07T10:36:50.424Z,74.36
2023-06-07T10:38:56.833Z,73.32
2023-06-07T10:41:03.342Z,73.10
2023-06-07T10:43:07.454Z,72.59
2023-06-07T10:45:16.511Z,72.12
2023-06-07T10:47:27.787Z,71.26
2023-06-07T10:49:39.809Z,71.47
2023-06-07T10:52:05.038Z,71.58
2023-06-07T10:54:10.014Z,71.90
2023-06-07T10:56:28.927Z,71.21
2023-06-07T10:58:33.675Z,70.42
2023-06-07T11:00:43.063Z,70.43
2023-06-07T11:02:48.564Z,69.92
2023-06-07T11:04:58.840Z,70.40
2023-06-07T11:07:18.722Z,69.86
2023-06-07T11:09:26.811Z,69.57
2023-06-07T11:11:55.142Z,68.40
2023-06-07T11:14:13.033Z,67.88
2023-06-07T11:16:38.735Z,66.70
2023-06-07T11:18:58.434Z,66.21
2023-06-07T11:21:04.873Z,67.01
2023-06-07T11:23:23.479Z,68.06
2023-06-07T11:25:28.600Z,68.29
2023-06-07T11:27:32.853Z,68.43
2023-06-07T11:29:38.037Z,67.53
2023-06-07T11:31:42.312Z,68.30
2023-06-07T11:33:46.045Z,67.22
2023-06-07T11:35:52.282Z,68.06
2023-06-07T11:37:57.881Z,67.88
2023-06-07T11:40:02.491Z,67.19
2023-06-07T11:42:08.894Z,67.21
2023-06-07T11:44:12.657Z,67.91
2023-06-07T11:46:17.428Z,67.39
2023-06-07T11:48:22.511Z,68.00
2023-06-07T11:50:27.750Z,67.37
2023-06-07T11:52:31.403Z,67.22
2023-06-07T11:54:37.588Z,67.15
2023-06-07T11:56:45.035Z,67.75
2023-06-07T11:58:48.717Z,66.94
2023-06-07T12:00:52.499Z,67.14
2023-06-07T12:02:56.732Z,67.29
2023-06-07T12:05:01.885Z,67.92
2023-06-07T12:07:21.500Z,68.03
2023-06-07T12:09:25.830Z,67.31
2023-06-07T12:11:31.056Z,67.40
2023-06-07T12:13:38.948Z,67.98
2023-06-07T12:15:46.193Z,68.83
2023-06-07T12:17:50.096Z,68.92
2023-06-07T12:19:54.394Z,69.69
2023-06-07T12:22:09.544Z,69.02
2023-06-07T12:24:15.355Z,67.81
2023-06-07T12:26:21.392Z,68.03
2023-06-07T12:28:27.215Z,68.33
2023-06-07T12:30:35.171Z,67.65
2023-06-07T12:32:39.050Z,67.98
2023-06-07T12:34:46.634Z,69.51
2023-06-07T12:36:51.950Z,69.80
2023-06-07T12:38:55.978Z,70.03
2023-06-07T12:41:00.692Z,70.14
2023-06-07T12:43:04.443Z,70.40
2023-06-07T12:45:10.949Z,69.91
2023-06-07T12:47:15.282Z,69.66
2023-06-07T12:49:19.107Z,69.99
2023-06-07T12:51:24.242Z,69.48
2023-06-07T12:53:30.850Z,68.37
2023-06-07T12:55:36.141Z,68.52
2023-06-07T12:57:39.759Z,68.47
2023-06-07T12:59:43.386Z,68.67
2023-06-07T13:01:49.652Z,68.25
2023-06-07T13:03:55.747Z,68.33
2023-06-07T13:05:59.613Z,67.90
2023-06-07T13:08:03.998Z,69.13
2023-06-07T13:10:09.567Z,69.37
2023-06-07T13:12:13.747Z,68.92
2023-06-07T13:14:18.244Z,68.70
2023-06-07T13:16:22.623Z,70.03
2023-06-07T13:18:30.510Z,71.03
2023-06-07T13:20:35.451Z,70.92
2023-06-07T13:22:38.785Z,70.93
2023-06-07T13:24:42.898Z,71.93
2023-06-07T13:26:47.212Z,71.34
2023-06-07T13:28:52.053Z,71.76
2023-06-07T13:30:56.124Z,71.70
2023-06-07T13:33:00.015Z,70.77
2023-06-07T13:35:06.390Z,70.64
2023-06-07T13:37:10.524Z,70.03
2023-06-07T13:39:14.393Z,70.22
2023-06-07T13:41:18.292Z,71.17
2023-06-07T13:43:27.664Z,71.35
2023-06-07T13:45:35.990Z,70.50
2023-06-07T13:47:40.203Z,70.79
2023-06-07T13:49:44.881Z,71.70
2023-06-07T13:51:50.746Z,72.94
2023-06-07T13:53:54.373Z,72.73
2023-06-07T13:55:58.001Z,73.25
2023-06-07T13:58:02.012Z,73.25
2023-06-07T14:00:07.104Z,73.27
2023-06-07T14:02:19.161Z,72.69
2023-06-07T14:04:25.217Z,72.45
2023-06-07T14:06:29.913Z,71.66
2023-06-07T14:08:35.340Z,70.91
2023-06-07T14:10:39.363Z,72.25
2023-06-07T14:12:43.455Z,71.41
2023-06-07T14:14:47.517Z,71.21
2023-06-07T14:16:53.575Z,71.00
2023-06-07T14:18:57.451Z,71.29
2023-06-07T14:21:01.122Z,71.06
2023-06-07T14:23:05.470Z,70.64
2023-06-07T14:25:11.270Z,71.46
2023-06-07T14:27:14.924Z,70.83
2023-06-07T14:29:19.316Z,71.37
2023-06-07T14:31:23.400Z,71.40
2023-06-07T14:33:27.372Z,71.01
2023-06-07T14:35:31.669Z,70.64
2023-06-07T14:37:35.570Z,70.69
2023-06-07T14:39:39.188Z,70.52
2023-06-07T14:41:45.663Z,70.39
2023-06-07T14:43:49.663Z,70.33
2023-06-07T14:45:53.991Z,69.53
2023-06-07T14:47:57.815Z,68.87
2023-06-07T14:50:01.918Z,69.03
2023-06-07T14:52:06.481Z,69.52
2023-06-07T14:54:11.503Z,70.09
2023-06-07T14:56:16.786Z,70.54
2023-06-07T14:58:22.207Z,70.47
2023-06-07T15:00:27.874Z,69.77
2023-06-07T15:02:31.640Z,70.24
2023-06-07T15:04:35.627Z,70.77
2023-06-07T15:06:40.113Z,70.48
2023-06-07T15:08:53.358Z,68.73
2023-06-07T15:10:59.655Z,68.81
2023-06-07T15:13:03.428Z,68.96
2023-06-07T15:15:09.996Z,68.30
2023-06-07T15:17:13.688Z,68.73
2023-06-07T15:19:17.688Z,68.96
2023-06-07T15:21:22.477Z,68.69
2023-06-07T15:23:26.533Z,69.92
2023-06-07T15:25:30.398Z,69.95
2023-06-07T15:27:34.196Z,69.51
2023-06-07T15:29:37.911Z,69.26
2023-06-07T15:31:43.501Z,70.23
2023-06-07T15:33:47.148Z,70.32
2023-06-07T15:35:51.238Z,69.47
2023-06-07T15:37:55.272Z,69.76
2023-06-07T15:39:59.021Z,70.47
2023-06-07T15:42:03.099Z,71.16
2023-06-07T15:44:07.087Z,70.57
2023-06-07T15:46:11.364Z,70.67
2023-06-07T15:48:16.958Z,70.92
2023-06-07T15:50:21.283Z,70.30
2023-06-07T15:52:25.263Z,70.27
2023-06-07T15:54:29.413Z,70.47
2023-06-07T15:56:33.420Z,69.92
2023-06-07T15:58:37.859Z,70.03
2023-06-07T16:00:42.458Z,69.57
2023-06-07T16:02:46.671Z,69.74
2023-06-07T16:04:54.961Z,69.88
2023-06-07T16:06:58.722Z,70.13
2023-06-07T16:09:09.432Z,70.02
2023-06-07T16:11:13.559Z,70.46
2023-06-07T16:13:17.453Z,70.02
2023-06-07T16:15:21.277Z,70.05
2023-06-07T16:17:25.503Z,70.40
2023-06-07T16:19:29.460Z,70.55
2023-06-07T16:21:35.242Z,70.49
2023-06-07T16:23:39.934Z,69.82
2023-06-07T16:25:43.608Z,70.71
2023-06-07T16:27:47.695Z,70.68
2023-06-07T16:29:52.061Z,71.71
2023-06-07T16:31:56.409Z,72.13
2023-06-07T16:34:01.721Z,72.11
2023-06-07T16:36:08.324Z,72.03
2023-06-07T16:38:14.141Z,72.85
2023-06-07T16:40:18.225Z,73.22
2023-06-07T16:42:22.041Z,73.23
2023-06-07T16:44:25.740Z,72.59
2023-06-07T16:46:29.720Z,72.60
2023-06-07T16:48:34.429Z,72.60
2023-06-07T16:50:38.624Z,72.42
2023-06-07T16:52:42.530Z,72.38
2023-06-07T16:54:47.979Z,72.53
2023-06-07T16:56:51.772Z,72.68
2023-06-07T16:58:56.555Z,73.38
2023-06-07T17:01:00.429Z,73.98
2023-06-07T17:03:04.696Z,73.23
2023-06-07T17:05:10.320Z,73.07
2023-06-07T17:07:14.255Z,73.36
2023-06-07T17:09:18.615Z,73.73
2023-06-07T17:11:24.223Z,73.65
2023-06-07T17:13:27.890Z,72.53
2023-06-07T17:15:31.648Z,73.12
2023-06-07T17:17:35.290Z,73.70
2023-06-07T17:19:38.936Z,73.49
2023-06-07T17:21:43.745Z,73.75
2023-06-07T17:23:47.672Z,74.28
2023-06-07T17:25:52.044Z,74.63
2023-06-07T17:27:57.309Z,74.57
2023-06-07T17:30:01.483Z,74.50
2023-06-07T17:32:05.910Z,74.76
2023-06-07T17:34:15.417Z,75.41
2023-06-07T17:36:19.781Z,75.53
2023-06-07T17:38:23.405Z,75.19
2023-06-07T17:40:27.644Z,75.50
2023-06-07T17:42:34.147Z,75.64
2023-06-07T17:44:39.693Z,75.85
2023-06-07T17:46:44.647Z,75.87
2023-06-07T17:48:48.478Z,76.40
2023-06-07T17:50:52.064Z,76.44
2023-06-07T17:52:55.897Z,76.96
2023-06-07T17:54:59.850Z,76.41
2023-06-07T17:57:04.256Z,77.19
2023-06-07T17:59:08.002Z,77.07
2023-06-07T18:01:14.369Z,77.04
2023-06-07T18:03:21.248Z,77.33
2023-06-07T18:05:25.275Z,77.67
2023-06-07T18:07:28.912Z,78.70
2023-06-07T18:09:32.690Z,78.43
2023-06-07T18:11:36.569Z,78.69
2023-06-07T18:13:40.785Z,78.68
2023-06-07T18:15:44.678Z,78.93
2023-06-07T18:17:53.066Z,78.67
2023-06-07T18:19:58.414Z,78.64
2023-06-07T18:22:03.658Z,79.06
2023-06-07T18:24:08.534Z,79.46
2023-06-07T18:26:13.196Z,79.24
2023-06-07T18:28:17.783Z,78.89
2023-06-07T18:30:25.561Z,78.92
2023-06-07T18:32:29.574Z,78.39
2023-06-07T18:34:35.793Z,78.29
2023-06-07T18:36:40.204Z,78.11
2023-06-07T18:38:43.824Z,79.16
2023-06-07T18:40:48.148Z,78.46
2023-06-07T18:42:51.990Z,78.20
2023-06-07T18:44:56.620Z,78.87
2023-06-07T18:47:01.284Z,79.05
2023-06-07T18:49:07.477Z,78.83
2023-06-07T18:51:13.146Z,78.33
2023-06-07T18:53:17.500Z,78.92
2023-06-07T18:55:21.644Z,79.35
2023-06-07T18:57:25.610Z,79.60
2023-06-07T18:59:32.968Z,79.78
2023-06-07T19:01:50.815Z,80.26
2023-06-07T19:03:57.158Z,80.63
2023-06-07T19:06:02.363Z,80.62
2023-06-07T19:08:08.539Z,80.44
2023-06-07T19:10:13.531Z,80.55
2023-06-07T19:12:17.657Z,80.84
2023-06-07T19:14:22.372Z,81.23
2023-06-07T19:16:26.893Z,81.45
2023-06-07T19:18:31.353Z,81.93
2023-06-07T19:20:36.151Z,82.10
2023-06-07T19:22:39.968Z,82.19
2023-06-07T19:24:45.279Z,82.51
2023-06-07T19:26:49.062Z,83.20
2023-06-07T19:28:53.013Z,83.18
2023-06-07T19:30:57.371Z,83.50
2023-06-07T19:33:01.742Z,83.73
2023-06-07T19:35:07.159Z,83.60
2023-06-07T19:37:13.709Z,84.13
2023-06-07T19:39:18.000Z,84.37
2023-06-07T19:41:25.009Z,83.93
2023-06-07T19:43:28.761Z,84.05
2023-06-07T19:45:33.615Z,84.69
2023-06-07T19:47:37.690Z,85.02
2023-06-07T19:49:43.797Z,84.73
2023-06-07T19:51:48.513Z,84.76
2023-06-07T19:53:53.281Z,85.19
2023-06-07T19:55:57.181Z,85.80
2023-06-07T19:58:02.992Z,85.20
2023-06-07T20:00:08.895Z,85.14
2023-06-07T20:02:20.337Z,85.36
2023-06-07T20:04:24.498Z,84.96
2023-06-07T20:06:28.871Z,85.60
2023-06-07T20:08:32.935Z,85.21
2023-06-07T20:10:37.024Z,85.58
2023-06-07T20:12:41.946Z,85.18
2023-06-07T20:14:48.985Z,85.02
2023-06-07T20:16:56.742Z,85.86
2023-06-07T20:19:00.541Z,85.33
2023-06-07T20:21:05.215Z,85.62
2023-06-07T20:23:10.043Z,85.97
2023-06-07T20:25:16.514Z,85.78
2023-06-07T20:27:20.553Z,86.20
2023-06-07T20:29:26.098Z,86.99
2023-06-07T20:31:31.421Z,86.66
2023-06-07T20:33:37.327Z,87.43
2023-06-07T20:35:44.439Z,87.61
2023-06-07T20:37:52.058Z,88.28
2023-06-07T20:39:57.035Z,89.19
2023-06-07T20:42:04.417Z,89.31
2023-06-07T20:44:10.625Z,89.34
2023-06-07T20:46:15.984Z,90.26
2023-06-07T20:48:22.929Z,89.99
2023-06-07T20:50:27.563Z,90.17
2023-06-07T20:52:33.271Z,90.16
2023-06-07T20:54:41.875Z,90.36
2023-06-07T20:56:45.739Z,90.40
2023-06-07T20:58:49.433Z,90.57
2023-06-07T21:00:54.023Z,91.01
2023-06-07T21:02:58.722Z,90.93
2023-06-07T21:05:04.348Z,90.99
2023-06-07T21:07:08.605Z,90.87
2023-06-07T21:09:13.665Z,90.81
2023-06-07T21:11:18.936Z,91.10
2023-06-07T21:13:24.475Z,91.94
2023-06-07T21:15:28.330Z,91.72
2023-06-07T21:17:33.468Z,91.33
2023-06-07T21:19:37.296Z,91.43
2023-06-07T21:21:42.803Z,91.04
2023-06-07T21:23:47.819Z,91.89
2023-06-07T21:25:52.830Z,90.92
2023-06-07T21:27:57.147Z,91.30
2023-06-07T21:30:02.109Z,91.27
2023-06-07T21:32:07.639Z,91.89
2023-06-07T21:34:13.985Z,92.13
2023-06-07T21:36:23.844Z,91.57
2023-06-07T21:38:30.426Z,92.16
2023-06-07T21:40:37.350Z,91.67
2023-06-07T21:42:42.406Z,91.40
2023-06-07T21:44:47.520Z,91.54
2023-06-07T21:46:52.213Z,91.69
2023-06-07T21:49:01.870Z,91.66
2023-06-07T21:51:06.590Z,91.46
2023-06-07T21:53:12.676Z,92.33
2023-06-07T21:55:25.492Z,91.91
2023-06-07T21:57:30.128Z,91.44
2023-06-07T21:59:34.440Z,91.59
2023-06-07T22:01:39.414Z,90.92
2023-06-07T22:03:43.536Z,92.13
2023-06-07T22:05:48.456Z,91.22
2023-06-07T22:07:53.580Z,92.03
2023-06-07T22:10:00.679Z,90.43
2023-06-07T22:12:11.613Z,91.67
2023-06-07T22:14:16.414Z,90.48
2023-06-07T22:16:21.012Z,90.76
2023-06-07T22:18:32.847Z,91.16
2023-06-07T22:20:37.969Z,90.50
2023-06-07T22:22:42.776Z,91.16
2023-06-07T22:24:47.217Z,91.18
2023-06-07T22:26:51.913Z,90.98
2023-06-07T22:29:01.519Z,91.29
2023-06-07T22:31:06.940Z,91.18
2023-06-07T22:33:11.847Z,91.04
2023-06-07T22:35:17.280Z,91.37
2023-06-07T22:37:33.772Z,91.41
2023-06-07T22:39:37.876Z,92.04
2023-06-07T22:41:43.631Z,91.58
2023-06-07T22:43:48.316Z,91.79
2023-06-07T22:45:53.706Z,92.15
2023-06-07T22:48:11.523Z,92.12
2023-06-07T22:50:15.641Z,91.91
2023-06-07T22:52:19.803Z,92.05
2023-06-07T22:54:24.017Z,92.30
2023-06-07T22:56:33.396Z,91.97
2023-06-07T22:58:37.970Z,92.09
2023-06-07T23:00:45.675Z,91.72
2023-06-07T23:02:51.669Z,92.27
2023-06-07T23:04:57.117Z,92.30
2023-06-07T23:07:03.885Z,92.22
2023-06-07T23:09:09.377Z,92.06
2023-06-07T23:11:14.040Z,91.79
2023-06-07T23:13:20.625Z,91.70
2023-06-07T23:15:27.871Z,91.88
2023-06-07T23:17:34.332Z,92.05
2023-06-07T23:19:42.721Z,91.57
2023-06-07T23:21:48.681Z,91.59
2023-06-07T23:23:52.636Z,91.59
2023-06-07T23:25:57.588Z,91.65
2023-06-07T23:28:01.593Z,91.79
2023-06-07T23:30:06.356Z,91.86
2023-06-07T23:32:11.572Z,92.11
2023-06-07T23:34:15.719Z,91.51
2023-06-07T23:36:21.889Z,91.74
2023-06-07T23:38:25.704Z,91.90
2023-06-07T23:40:31.063Z,91.84
2023-06-07T23:42:35.267Z,91.57
2023-06-07T23:44:39.340Z,92.57
2023-06-07T23:46:43.997Z,92.13
2023-06-07T23:48:47.749Z,91.86
2023-06-07T23:50:51.790Z,91.67
2023-06-07T23:52:59.034Z,91.48
2023-06-07T23:55:03.120Z,91.78
2023-06-07T23:57:08.415Z,92.01
2023-06-07T23:59:12.141Z,92.03
